createdAt,value
2019-04-04T00:01:20.544Z,11.20
2019-04-04T00:03:51.522Z,11.19
2019-04-04T00:06:19.773Z,11.17
2019-04-04T00:08:48.578Z,11.13
2019-04-04T00:11:17.320Z,11.05
2019-04-04T00:13:46.072Z,11.06
2019-04-04T00:16:16.079Z,11.05
2019-04-04T00:18:45.373Z,11.08
2019-04-04T00:21:14.123Z,11.06
2019-04-04T00:23:42.938Z,10.95
2019-04-04T00:26:11.978Z,11.00
2019-04-04T00:28:40.718Z,10.99
2019-04-04T00:31:09.523Z,10.97
2019-04-04T00:33:38.278Z,10.96
2019-04-04T00:36:07.026Z,10.88
2019-04-04T00:38:37.719Z,10.90
2019-04-04T00:41:06.294Z,10.93
2019-04-04T00:43:35.038Z,10.90
2019-04-04T00:46:03.813Z,10.94
2019-04-04T00:48:34.271Z,10.94
2019-04-04T00:51:03.058Z,10.94
2019-04-04T00:53:32.753Z,11.04
2019-04-04T00:56:01.578Z,10.99
2019-04-04T00:58:30.323Z,11.01
2019-04-04T01:00:59.160Z,10.99
2019-04-04T01:03:28.110Z,10.98
2019-04-04T01:05:58.383Z,11.03
2019-04-04T01:08:27.178Z,10.99
2019-04-04T01:10:55.914Z,10.98
2019-04-04T01:13:27.582Z,11.01
2019-04-04T01:15:55.149Z,11.05
2019-04-04T01:18:23.894Z,10.96
2019-04-04T01:20:52.683Z,10.96
2019-04-04T01:23:21.439Z,10.91
2019-04-04T01:25:50.178Z,10.90
2019-04-04T01:28:18.943Z,10.86
2019-04-04T01:30:47.688Z,10.84
2019-04-04T01:33:19.675Z,10.85
2019-04-04T01:35:46.958Z,10.85
2019-04-04T01:38:15.693Z,10.87
2019-04-04T01:40:44.458Z,10.83
2019-04-04T01:43:13.218Z,10.85
2019-04-04T01:45:43.721Z,10.87
2019-04-04T01:48:12.484Z,10.88
2019-04-04T01:50:41.209Z,10.95
2019-04-04T01:53:09.985Z,10.92
2019-04-04T01:55:38.747Z,10.92
2019-04-04T01:58:08.018Z,10.99
2019-04-04T02:00:38.012Z,11.01
2019-04-04T02:03:06.770Z,11.10
2019-04-04T02:05:35.546Z,11.12
2019-04-04T02:08:04.612Z,11.18
2019-04-04T02:10:34.955Z,11.23
2019-04-04T02:13:04.248Z,11.30
2019-04-04T02:15:33.054Z,11.39
2019-04-04T02:18:01.887Z,11.39
2019-04-04T02:20:30.608Z,11.44
2019-04-04T02:23:01.175Z,11.45
2019-04-04T02:25:29.906Z,11.43
2019-04-04T02:27:58.726Z,11.44
2019-04-04T02:30:27.467Z,11.42
2019-04-04T02:32:59.438Z,11.39
2019-04-04T02:35:26.767Z,11.32
2019-04-04T02:37:56.176Z,11.33
2019-04-04T02:40:25.228Z,11.26
2019-04-04T02:42:55.394Z,11.25
2019-04-04T02:45:24.450Z,11.22
2019-04-04T02:47:53.247Z,11.15
2019-04-04T02:50:22.028Z,11.15
2019-04-04T02:52:50.826Z,11.07
2019-04-04T02:55:19.590Z,11.02
2019-04-04T02:57:48.411Z,11.02
2019-04-04T03:00:17.771Z,11.02
2019-04-04T03:02:46.585Z,10.95
2019-04-04T03:05:18.752Z,11.04
2019-04-04T03:07:45.867Z,11.06
2019-04-04T03:10:16.490Z,11.04
2019-04-04T03:12:45.149Z,11.05
2019-04-04T03:15:13.911Z,11.11
2019-04-04T03:17:42.764Z,11.12
2019-04-04T03:20:16.265Z,11.13
2019-04-04T03:22:42.028Z,11.18
2019-04-04T03:25:14.440Z,11.22
2019-04-04T03:27:41.331Z,11.19
2019-04-04T03:30:14.602Z,11.23
2019-04-04T03:32:41.071Z,11.32
2019-04-04T03:35:09.856Z,11.26
2019-04-04T03:37:40.956Z,11.33
2019-04-04T03:40:09.491Z,11.31
2019-04-04T03:42:38.310Z,11.37
2019-04-04T03:45:07.550Z,11.46
2019-04-04T03:47:36.316Z,11.49
2019-04-04T03:50:06.831Z,11.51
2019-04-04T03:52:35.630Z,11.53
2019-04-04T03:55:06.772Z,11.54
2019-04-04T03:57:35.670Z,11.54
2019-04-04T04:00:07.574Z,11.47
2019-04-04T04:02:36.551Z,11.52
2019-04-04T04:05:08.229Z,11.50
2019-04-04T04:07:37.011Z,11.51
2019-04-04T04:10:06.812Z,11.53
2019-04-04T04:12:35.636Z,11.56
2019-04-04T04:15:05.640Z,11.53
2019-04-04T04:17:36.246Z,11.52
2019-04-04T04:20:06.056Z,11.47
2019-04-04T04:22:34.809Z,11.50
2019-04-04T04:25:03.819Z,11.49
2019-04-04T04:27:32.770Z,11.51
2019-04-04T04:30:06.125Z,11.53
2019-04-04T04:32:32.207Z,11.53
2019-04-04T04:35:00.998Z,11.47
2019-04-04T04:37:29.809Z,11.48
2019-04-04T04:39:58.591Z,11.49
2019-04-04T04:42:27.567Z,11.42
2019-04-04T04:44:56.410Z,11.42
2019-04-04T04:47:25.169Z,11.41
2019-04-04T04:49:55.502Z,11.38
2019-04-04T04:52:24.468Z,11.37
2019-04-04T04:54:54.803Z,11.45
2019-04-04T04:57:29.782Z,11.44
2019-04-04T04:59:54.312Z,11.46
2019-04-04T05:02:23.083Z,11.53
2019-04-04T05:04:51.867Z,11.55
2019-04-04T05:07:20.611Z,11.65
2019-04-04T05:09:49.468Z,11.67
2019-04-04T05:12:18.245Z,11.71
2019-04-04T05:14:46.988Z,11.70
2019-04-04T05:17:15.811Z,11.76
2019-04-04T05:19:45.218Z,11.79
2019-04-04T05:22:14.049Z,11.87
2019-04-04T05:24:42.828Z,11.92
2019-04-04T05:27:11.596Z,11.97
2019-04-04T05:29:40.397Z,12.06
2019-04-04T05:32:09.170Z,12.03
2019-04-04T05:34:38.035Z,12.09
2019-04-04T05:37:07.299Z,12.13
2019-04-04T05:39:36.790Z,12.16
2019-04-04T05:42:05.679Z,12.15
2019-04-04T05:44:34.467Z,12.23
2019-04-04T05:47:03.229Z,12.28
2019-04-04T05:49:32.017Z,12.28
2019-04-04T05:52:00.830Z,12.33
2019-04-04T05:54:29.630Z,12.36
2019-04-04T05:56:58.389Z,12.43
2019-04-04T05:59:27.229Z,12.44
2019-04-04T06:01:55.969Z,12.52
2019-04-04T06:04:24.849Z,12.57
2019-04-04T06:06:55.600Z,12.65
2019-04-04T06:09:24.149Z,12.69
2019-04-04T06:11:53.761Z,12.74
2019-04-04T06:14:22.735Z,12.84
2019-04-04T06:16:51.529Z,12.89
2019-04-04T06:19:20.289Z,12.92
2019-04-04T06:21:49.898Z,13.00
2019-04-04T06:24:19.354Z,13.07
2019-04-04T06:26:48.115Z,13.20
2019-04-04T06:29:17.347Z,13.29
2019-04-04T06:31:46.851Z,13.39
2019-04-04T06:34:15.629Z,13.48
2019-04-04T06:36:44.409Z,13.58
2019-04-04T06:39:13.171Z,13.66
2019-04-04T06:41:41.989Z,13.80
2019-04-04T06:44:12.757Z,13.91
2019-04-04T06:46:41.230Z,13.94
2019-04-04T06:49:10.022Z,13.98
2019-04-04T06:51:38.791Z,14.07
2019-04-04T06:54:07.574Z,14.08
2019-04-04T06:56:36.352Z,14.08
2019-04-04T06:59:05.123Z,14.19
2019-04-04T07:01:33.892Z,14.33
2019-04-04T07:04:02.653Z,14.41
2019-04-04T07:06:31.413Z,14.36
2019-04-04T07:09:00.152Z,14.37
2019-04-04T07:11:28.955Z,14.39
2019-04-04T07:13:59.186Z,14.43
2019-04-04T07:16:28.192Z,14.57
2019-04-04T07:18:56.952Z,14.63
2019-04-04T07:21:25.702Z,14.74
2019-04-04T07:23:54.513Z,14.76
2019-04-04T07:26:23.244Z,14.70
2019-04-04T07:28:53.974Z,14.56
2019-04-04T07:31:22.493Z,14.75
2019-04-04T07:33:51.252Z,14.86
2019-04-04T07:36:20.828Z,14.98
2019-04-04T07:38:49.684Z,15.22
2019-04-04T07:41:18.404Z,15.14
2019-04-04T07:43:47.192Z,15.21
2019-04-04T07:46:17.157Z,15.30
2019-04-04T07:48:46.132Z,15.23
2019-04-04T07:51:14.874Z,15.36
2019-04-04T07:53:43.612Z,15.45
2019-04-04T07:56:14.257Z,15.38
2019-04-04T07:58:42.826Z,15.27
2019-04-04T08:01:11.632Z,15.22
2019-04-04T08:03:40.415Z,15.27
2019-04-04T08:06:09.172Z,15.49
2019-04-04T08:08:37.990Z,15.61
2019-04-04T08:11:06.772Z,15.73
2019-04-04T08:13:35.592Z,15.69
2019-04-04T08:16:05.232Z,15.76
2019-04-04T08:18:33.962Z,15.74
2019-04-04T08:21:05.529Z,15.77
2019-04-04T08:23:33.193Z,15.73
2019-04-04T08:26:02.293Z,15.79
2019-04-04T08:28:31.045Z,15.79
2019-04-04T08:30:59.772Z,15.98
2019-04-04T08:33:28.512Z,15.90
2019-04-04T08:36:05.942Z,15.79
2019-04-04T08:38:27.773Z,15.88
2019-04-04T08:40:56.533Z,15.80
2019-04-04T08:43:25.272Z,15.88
2019-04-04T08:45:54.073Z,16.15
2019-04-04T08:48:22.812Z,16.18
2019-04-04T08:50:51.592Z,16.41
2019-04-04T08:53:20.352Z,16.64
2019-04-04T08:55:49.173Z,16.78
2019-04-04T08:58:17.912Z,16.65
2019-04-04T09:00:46.653Z,16.68
2019-04-04T09:03:15.432Z,16.86
2019-04-04T09:05:44.233Z,17.15
2019-04-04T09:08:13.013Z,17.27
2019-04-04T09:10:41.732Z,17.34
2019-04-04T09:13:10.592Z,17.57
2019-04-04T09:15:39.372Z,17.53
2019-04-04T09:18:08.132Z,17.53
2019-04-04T09:20:36.933Z,17.38
2019-04-04T09:23:05.692Z,17.15
2019-04-04T09:25:34.432Z,17.34
2019-04-04T09:28:03.235Z,17.30
2019-04-04T09:30:31.982Z,17.65
2019-04-04T09:33:00.773Z,17.98
2019-04-04T09:35:29.533Z,17.96
2019-04-04T09:37:58.293Z,17.74
2019-04-04T09:40:27.073Z,17.82
2019-04-04T09:42:55.803Z,17.97
2019-04-04T09:45:24.612Z,17.95
2019-04-04T09:47:53.352Z,17.85
2019-04-04T09:50:22.073Z,17.83
2019-04-04T09:52:50.893Z,18.07
2019-04-04T09:55:19.717Z,18.06
2019-04-04T09:57:48.532Z,17.99
2019-04-04T10:00:20.936Z,18.38
2019-04-04T10:02:49.675Z,18.61
2019-04-04T10:05:18.693Z,18.85
2019-04-04T10:07:47.432Z,18.15
2019-04-04T10:10:16.993Z,18.83
2019-04-04T10:12:45.734Z,18.72
2019-04-04T10:15:15.143Z,18.59
2019-04-04T10:17:44.412Z,19.24
2019-04-04T10:20:13.262Z,19.19
2019-04-04T10:22:42.054Z,19.32
2019-04-04T10:25:10.973Z,19.39
2019-04-04T10:27:39.773Z,19.86
2019-04-04T10:30:10.292Z,19.81
2019-04-04T10:32:39.263Z,19.23
2019-04-04T10:35:08.612Z,18.74
2019-04-04T10:37:37.414Z,18.83
2019-04-04T10:40:07.814Z,19.28
2019-04-04T10:42:36.592Z,19.36
2019-04-04T10:45:07.412Z,19.28
2019-04-04T10:47:36.212Z,19.69
2019-04-04T10:50:09.673Z,19.92
2019-04-04T10:52:38.517Z,20.45
2019-04-04T10:55:08.052Z,19.99
2019-04-04T10:57:36.793Z,19.87
2019-04-04T11:00:09.756Z,20.08
2019-04-04T11:02:38.512Z,20.32
2019-04-04T11:05:07.513Z,20.34
2019-04-04T11:07:36.353Z,19.56
2019-04-04T11:10:06.735Z,19.48
2019-04-04T11:12:35.494Z,19.63
2019-04-04T11:15:06.234Z,19.96
2019-04-04T11:17:35.032Z,19.74
2019-04-04T11:20:05.213Z,19.79
2019-04-04T11:22:33.953Z,19.66
2019-04-04T11:25:02.712Z,19.59
2019-04-04T11:27:31.481Z,20.05
2019-04-04T11:30:00.234Z,20.10
2019-04-04T11:32:28.992Z,19.57
2019-04-04T11:34:57.793Z,20.33
2019-04-04T11:37:26.573Z,19.65
2019-04-04T11:39:55.418Z,19.78
2019-04-04T11:42:24.193Z,19.98
2019-04-04T11:44:52.936Z,19.89
2019-04-04T11:47:21.712Z,20.01
2019-04-04T11:49:50.561Z,20.29
2019-04-04T11:52:19.340Z,19.83
2019-04-04T11:54:49.682Z,20.39
2019-04-04T11:57:18.420Z,20.90
2019-04-04T11:59:47.212Z,21.37
2019-04-04T12:02:15.961Z,21.36
2019-04-04T12:04:44.692Z,20.76
2019-04-04T12:07:13.509Z,20.39
2019-04-04T12:09:42.232Z,20.38
2019-04-04T12:12:11.015Z,20.87
2019-04-04T12:14:39.752Z,21.05
2019-04-04T12:17:08.517Z,20.99
2019-04-04T12:19:37.252Z,21.59
2019-04-04T12:22:05.981Z,21.13
2019-04-04T12:24:34.773Z,20.95
2019-04-04T12:27:03.514Z,20.90
2019-04-04T12:29:32.273Z,21.19
2019-04-04T12:32:01.053Z,21.26
2019-04-04T12:34:29.794Z,21.33
2019-04-04T12:36:58.595Z,21.00
2019-04-04T12:39:27.332Z,20.56
2019-04-04T12:41:56.082Z,20.47
2019-04-04T12:44:24.832Z,20.35
2019-04-04T12:46:53.574Z,20.31
2019-04-04T12:49:22.372Z,20.81
2019-04-04T12:51:51.132Z,20.31
2019-04-04T12:54:19.892Z,19.87
2019-04-04T12:56:48.696Z,19.62
2019-04-04T12:59:17.513Z,19.84
2019-04-04T13:01:46.293Z,20.46
2019-04-04T13:04:15.034Z,20.68
2019-04-04T13:06:43.813Z,21.45
2019-04-04T13:09:12.593Z,21.33
2019-04-04T13:11:41.373Z,20.76
2019-04-04T13:14:10.156Z,20.96
2019-04-04T13:16:38.900Z,21.31
2019-04-04T13:19:07.745Z,21.74
2019-04-04T13:21:36.492Z,22.48
2019-04-04T13:24:05.513Z,23.37
2019-04-04T13:26:34.292Z,23.28
2019-04-04T13:29:03.075Z,22.62
2019-04-04T13:31:31.892Z,22.00
2019-04-04T13:34:00.637Z,22.14
2019-04-04T13:36:29.396Z,21.93
2019-04-04T13:38:58.180Z,21.30
2019-04-04T13:41:26.933Z,20.66
2019-04-04T13:43:55.742Z,20.41
2019-04-04T13:46:25.883Z,21.00
2019-04-04T13:48:54.934Z,21.68
2019-04-04T13:51:25.500Z,21.82
2019-04-04T13:53:54.472Z,21.28
2019-04-04T13:56:23.272Z,21.14
2019-04-04T13:58:52.053Z,21.05
2019-04-04T14:01:20.795Z,20.97
2019-04-04T14:03:49.594Z,21.17
2019-04-04T14:06:18.349Z,21.17
2019-04-04T14:08:47.113Z,21.87
2019-04-04T14:11:15.913Z,21.56
2019-04-04T14:13:44.647Z,20.66
2019-04-04T14:16:13.394Z,20.74
2019-04-04T14:18:44.484Z,20.96
2019-04-04T14:21:12.714Z,21.19
2019-04-04T14:23:45.168Z,21.64
2019-04-04T14:26:12.932Z,22.12
2019-04-04T14:28:41.652Z,21.88
2019-04-04T14:31:12.430Z,21.39
2019-04-04T14:33:41.474Z,21.35
2019-04-04T14:36:10.232Z,21.84
2019-04-04T14:38:38.954Z,21.72
2019-04-04T14:41:11.538Z,22.08
2019-04-04T14:43:39.640Z,22.50
2019-04-04T14:46:08.414Z,22.28
2019-04-04T14:48:38.053Z,21.31
2019-04-04T14:51:06.893Z,21.10
2019-04-04T14:53:35.672Z,21.06
2019-04-04T14:56:04.513Z,21.03
2019-04-04T14:58:33.273Z,21.59
2019-04-04T15:01:02.258Z,21.72
2019-04-04T15:03:31.040Z,21.61
2019-04-04T15:05:59.813Z,21.57
2019-04-04T15:08:28.554Z,20.86
2019-04-04T15:10:57.461Z,20.52
2019-04-04T15:13:26.256Z,20.91
2019-04-04T15:16:13.039Z,20.79
2019-04-04T15:18:41.894Z,20.98
2019-04-04T15:21:11.052Z,20.95
2019-04-04T15:23:39.854Z,20.54
2019-04-04T15:26:09.887Z,20.60
2019-04-04T15:28:38.767Z,20.71
2019-04-04T15:31:07.796Z,20.73
2019-04-04T15:33:36.553Z,20.76
2019-04-04T15:36:05.278Z,20.79
2019-04-04T15:38:35.259Z,21.12
2019-04-04T15:41:04.095Z,20.80
2019-04-04T15:43:32.813Z,20.80
2019-04-04T15:46:01.613Z,20.81
2019-04-04T15:48:30.355Z,20.32
2019-04-04T15:50:59.114Z,19.51
2019-04-04T15:53:27.935Z,19.16
2019-04-04T15:55:56.667Z,19.00
2019-04-04T15:58:25.713Z,18.79
2019-04-04T16:00:54.683Z,18.83
2019-04-04T16:03:23.452Z,18.90
2019-04-04T16:05:52.194Z,19.05
2019-04-04T16:08:21.033Z,19.04
2019-04-04T16:10:49.769Z,19.27
2019-04-04T16:13:18.534Z,19.38
2019-04-04T16:15:47.350Z,19.47
2019-04-04T16:18:17.575Z,19.45
2019-04-04T16:20:46.314Z,19.36
2019-04-04T16:23:15.129Z,19.05
2019-04-04T16:25:43.912Z,18.89
2019-04-04T16:28:12.652Z,18.79
2019-04-04T16:30:41.492Z,18.75
2019-04-04T16:33:10.204Z,18.66
2019-04-04T16:35:38.994Z,18.46
2019-04-04T16:38:07.773Z,18.34
2019-04-04T16:40:36.553Z,18.33
2019-04-04T16:43:05.294Z,18.26
2019-04-04T16:45:34.113Z,18.19
2019-04-04T16:48:02.893Z,18.08
2019-04-04T16:50:31.732Z,18.09
2019-04-04T16:53:00.553Z,18.14
2019-04-04T16:55:29.293Z,18.04
2019-04-04T16:57:58.056Z,17.94
2019-04-04T17:00:27.574Z,17.85
2019-04-04T17:02:56.333Z,17.80
2019-04-04T17:05:25.193Z,17.67
2019-04-04T17:07:53.993Z,17.59
2019-04-04T17:10:22.734Z,17.72
2019-04-04T17:12:51.521Z,17.75
2019-04-04T17:15:21.894Z,17.72
2019-04-04T17:17:50.656Z,17.64
2019-04-04T17:20:20.887Z,17.48
2019-04-04T17:22:49.773Z,17.44
2019-04-04T17:25:18.615Z,17.44
2019-04-04T17:27:47.392Z,17.41
2019-04-04T17:30:17.852Z,17.39
2019-04-04T17:32:48.884Z,17.36
2019-04-04T17:35:17.194Z,17.28
2019-04-04T17:37:46.014Z,17.28
2019-04-04T17:40:16.137Z,17.17
2019-04-04T17:42:45.339Z,17.16
2019-04-04T17:45:15.392Z,17.06
2019-04-04T17:47:44.274Z,17.00
2019-04-04T17:50:15.489Z,16.84
2019-04-04T17:52:44.992Z,16.78
2019-04-04T17:55:14.452Z,16.78
2019-04-04T17:57:43.312Z,16.71
2019-04-04T18:00:14.633Z,16.64
2019-04-04T18:02:43.449Z,16.52
2019-04-04T18:05:12.632Z,16.47
2019-04-04T18:07:41.401Z,16.42
2019-04-04T18:10:11.113Z,16.37
2019-04-04T18:12:40.828Z,16.33
2019-04-04T18:15:10.093Z,16.32
2019-04-04T18:17:38.852Z,16.28
2019-04-04T18:20:08.988Z,16.28
2019-04-04T18:22:38.033Z,16.19
2019-04-04T18:25:07.834Z,16.19
2019-04-04T18:27:36.614Z,16.15
2019-04-04T18:30:08.334Z,16.16
2019-04-04T18:32:37.213Z,16.13
2019-04-04T18:35:07.672Z,16.12
2019-04-04T18:37:37.069Z,16.08
2019-04-04T18:40:08.392Z,16.01
2019-04-04T18:42:37.177Z,16.01
2019-04-04T18:45:07.613Z,15.97
2019-04-04T18:47:36.435Z,16.05
2019-04-04T18:50:06.994Z,16.06
2019-04-04T18:52:35.874Z,15.88
2019-04-04T18:55:18.685Z,15.99
2019-04-04T18:57:37.015Z,15.98
2019-04-04T19:00:09.113Z,15.90
2019-04-04T19:02:38.092Z,15.85
2019-04-04T19:05:07.673Z,15.75
2019-04-04T19:07:39.528Z,15.78
2019-04-04T19:10:09.000Z,15.82
2019-04-04T19:12:37.892Z,15.79
2019-04-04T19:15:07.815Z,15.71
2019-04-04T19:17:36.889Z,15.71
2019-04-04T19:20:10.417Z,15.71
2019-04-04T19:22:39.560Z,15.68
2019-04-04T19:25:09.812Z,15.68
2019-04-04T19:27:38.722Z,15.68
2019-04-04T19:30:09.073Z,15.68
2019-04-04T19:32:38.033Z,15.57
2019-04-04T19:35:08.272Z,15.56
2019-04-04T19:37:37.213Z,15.48
2019-04-04T19:40:09.133Z,15.41
2019-04-04T19:42:38.080Z,15.28
2019-04-04T19:45:08.614Z,15.33
2019-04-04T19:47:37.492Z,15.28
2019-04-04T19:50:10.932Z,15.17
2019-04-04T19:52:39.773Z,15.12
2019-04-04T19:55:09.353Z,15.09
2019-04-04T19:57:38.174Z,15.07
2019-04-04T20:00:09.013Z,14.96
2019-04-04T20:02:38.623Z,14.93
2019-04-04T20:05:08.461Z,14.81
2019-04-04T20:07:37.212Z,14.78
2019-04-04T20:10:07.296Z,14.84
2019-04-04T20:12:36.292Z,14.79
2019-04-04T20:15:08.313Z,14.77
2019-04-04T20:17:37.234Z,14.72
2019-04-04T20:20:07.993Z,14.76
2019-04-04T20:22:36.843Z,14.65
2019-04-04T20:25:09.060Z,14.67
2019-04-04T20:27:37.856Z,14.74
2019-04-04T20:30:09.033Z,14.63
2019-04-04T20:32:37.956Z,14.59
2019-04-04T20:35:08.353Z,14.58
2019-04-04T20:37:37.139Z,14.53
2019-04-04T20:40:06.953Z,14.61
2019-04-04T20:42:35.693Z,14.54
2019-04-04T20:45:05.792Z,14.46
2019-04-04T20:47:34.633Z,14.46
2019-04-04T20:50:04.400Z,14.47
2019-04-04T20:52:33.152Z,14.47
2019-04-04T20:55:01.952Z,14.49
2019-04-04T20:57:30.693Z,14.49
2019-04-04T20:59:59.419Z,14.48
2019-04-04T21:02:28.232Z,14.46
2019-04-04T21:04:56.993Z,14.50
2019-04-04T21:07:25.756Z,14.49
2019-04-04T21:09:54.573Z,14.49
2019-04-04T21:12:23.334Z,14.45
2019-04-04T21:14:52.073Z,14.55
2019-04-04T21:17:20.873Z,14.50
2019-04-04T21:19:49.635Z,14.43
2019-04-04T21:22:27.505Z,14.45
2019-04-04T21:24:48.933Z,14.45
2019-04-04T21:27:18.885Z,14.35
2019-04-04T21:29:47.812Z,14.35
2019-04-04T21:32:16.614Z,14.25
2019-04-04T21:34:45.353Z,14.24
2019-04-04T21:37:14.134Z,14.24
2019-04-04T21:39:42.953Z,14.21
2019-04-04T21:42:11.735Z,14.14
2019-04-04T21:44:40.495Z,14.03
2019-04-04T21:47:09.313Z,13.98
2019-04-04T21:49:38.072Z,13.98
2019-04-04T21:52:06.802Z,13.94
2019-04-04T21:54:35.634Z,13.91
2019-04-04T21:57:04.392Z,13.89
2019-04-04T21:59:33.133Z,13.77
2019-04-04T22:02:01.935Z,13.77
2019-04-04T22:04:30.693Z,13.67
2019-04-04T22:06:59.443Z,13.67
2019-04-04T22:09:28.273Z,13.67
2019-04-04T22:11:57.033Z,13.67
2019-04-04T22:14:25.794Z,13.68
2019-04-04T22:16:54.661Z,13.58
2019-04-04T22:19:23.434Z,13.57
2019-04-04T22:21:52.192Z,13.53
2019-04-04T22:24:22.421Z,13.53
2019-04-04T22:26:51.475Z,13.45
2019-04-04T22:29:20.253Z,13.51
2019-04-04T22:31:49.079Z,13.60
2019-04-04T22:34:17.834Z,13.51
2019-04-04T22:36:46.642Z,13.57
2019-04-04T22:39:15.513Z,13.53
2019-04-04T22:41:44.255Z,13.51
2019-04-04T22:44:13.667Z,13.52
2019-04-04T22:46:42.683Z,13.49
2019-04-04T22:49:11.748Z,13.42
2019-04-04T22:51:40.686Z,13.46
2019-04-04T22:54:09.728Z,13.45
2019-04-04T22:56:38.610Z,13.49
2019-04-04T22:59:07.628Z,13.50
2019-04-04T23:01:36.607Z,13.48
2019-04-04T23:04:05.648Z,13.45
2019-04-04T23:06:34.548Z,13.35
2019-04-04T23:09:04.569Z,13.39
2019-04-04T23:11:33.448Z,13.34
2019-04-04T23:14:02.449Z,13.32
2019-04-04T23:16:31.449Z,13.32
2019-04-04T23:19:00.348Z,13.25
2019-04-04T23:21:29.348Z,13.24
2019-04-04T23:23:58.388Z,13.21
2019-04-04T23:26:27.750Z,13.10
2019-04-04T23:28:56.729Z,13.10
2019-04-04T23:31:25.787Z,13.08
2019-04-04T23:33:54.767Z,13.14
2019-04-04T23:36:34.350Z,13.12
2019-04-04T23:38:54.551Z,13.02
2019-04-04T23:41:23.446Z,13.04
2019-04-04T23:43:52.427Z,13.01
2019-04-04T23:46:21.787Z,12.89
2019-04-04T23:48:50.836Z,12.84
2019-04-04T23:51:19.748Z,12.80
2019-04-04T23:53:48.748Z,12.78
2019-04-04T23:56:17.729Z,12.76
2019-04-04T23:58:46.732Z,12.67
